Imagination — C6FN2 — position and weather

sailwx.info

Track history (hours):
 
Tides and Currents Weather Stations Pressure Air Temp Water Temp Dewpoint Dewpoint Depression Visibility Wind Speed Wind Dir Waves Ship Positions

Imagination

Operator: Carnival Cruise Lines

Last reported at 2018-Feb-26 02:00 UTC. Time now 2018-Feb-26 02:12 UTC.
Position N 33°42' W 118°11'.

Type: Ship. MMSI: 309933000.

Date/timePositionNaut miles runAvg speedWind from/ knotsBaromVisibWave heightAir tempDewpointWater temp
2018-Feb-26 02:00N 33°42' W 118°11'3 5.9
2018-Feb-26 01:30N 33°45' W 118°11'0 0.0
2018-Feb-26 00:58N 33°45' W 118°11'0 0.0
2018-Feb-26 00:28N 33°45' W 118°11'0 0.0
2018-Feb-26 00:00N 33°45' W 118°11'0 0.0
2018-Feb-25 23:30N 33°45' W 118°11'0 0.0
2018-Feb-25 23:00N 33°45' W 118°11'0 0.0
2018-Feb-25 22:30N 33°45' W 118°11'0 0.0
2018-Feb-25 22:00N 33°45' W 118°11'0 0.0
2018-Feb-25 21:29N 33°45' W 118°11'0 0.0
2018-Feb-25 20:59N 33°45' W 118°11'0 0.0
2018-Feb-25 20:29N 33°45' W 118°11'0 0.0
2018-Feb-25 19:59N 33°45' W 118°11'0 0.0
2018-Feb-25 19:28N 33°45' W 118°11'0 0.0
2018-Feb-25 18:58N 33°45' W 118°11'0 0.0
2018-Feb-25 18:28N 33°45' W 118°11'0 0.0
2018-Feb-25 17:58N 33°45' W 118°11'0 0.0
2018-Feb-25 17:25N 33°45' W 118°11'0 0.0
2018-Feb-25 17:00N 33°45' W 118°11'0 0.0
2018-Feb-25 16:30N 33°45' W 118°11'0 0.0
2018-Feb-25 16:00N 33°45' W 118°11'0 0.0
2018-Feb-25 15:30N 33°45' W 118°11'0 0.0
2018-Feb-25 14:59N 33°45' W 118°11'0 0.0
2018-Feb-25 14:26N 33°45' W 118°11'0 0.0
2018-Feb-25 13:56N 33°45' W 118°11'0 0.8
2018-Feb-25 13:30N 33°45' W 118°11'3 6.5
2018-Feb-25 13:01N 33°42' W 118°11'4 8.4
2018-Feb-25 12:30N 33°37' W 118°10'4 7.4
2018-Feb-25 12:00N 33°34' W 118°09'3 5.9
2018-Feb-25 11:30N 33°31' W 118°08'3 5.6
2018-Feb-25 11:00N 33°28' W 118°06'3 6.1
2018-Feb-25 10:30N 33°26' W 118°05'3 6.6
2018-Feb-25 10:00N 33°23' W 118°04'5365.7
2018-Feb-25 10:00N 33°18' W 118°00'2 5.0 120 / 101025.3 5.4 12.0 6.215.0
2018-Feb-25 09:30N 33°19' W 118°02'3 6.5
2018-Feb-25 09:00N 33°16' W 118°01'3 6.5
2018-Feb-25 08:30N 33°13' W 117°60'3 6.7
2018-Feb-25 07:59N 33°10' W 117°58'3 6.7
2018-Feb-25 07:28N 33°07' W 117°57'3 6.7
2018-Feb-25 07:00N 33°04' W 117°55'3 6.7
2018-Feb-25 06:30N 33°01' W 117°53'3 7.0
2018-Feb-25 06:00N 32°58' W 117°52'3 6.9
2018-Feb-25 05:30N 32°55' W 117°50'3 6.6
2018-Feb-25 05:00N 32°51' W 117°50'3 6.7
2018-Feb-25 04:30N 32°48' W 117°49'3 6.5
2018-Feb-25 04:00N 32°45' W 117°48'3 6.5
2018-Feb-25 03:30N 32°42' W 117°48'3 6.4
2018-Feb-25 03:00N 32°38' W 117°47'4 6.5
2018-Feb-25 02:23N 32°34' W 117°46'2 6.5
2018-Feb-25 02:01N 32°32' W 117°46'7 6.7
2018-Feb-25 01:01N 32°25' W 117°46'0 6.6
2018-Feb-25 01:00N 32°25' W 117°46'3 6.7
2018-Feb-25 00:30N 32°22' W 117°45'28 8.0
2018-Feb-24 21:00N 31°54' W 117°42'35 5.0 330 / 81028.3 5.4 13.0 5.116.0
2018-Feb-24 14:00N 31°30' W 118°12'33 6.6 360 / 71027.310.8 12.0 3.916.0
2018-Feb-24 09:00N 31°42' W 117°36'67 3.4 350 / 151030.3 5.4 11.0 5.016.0
2018-Feb-23 13:00N 31°54' W 118°54'7022.1 310 / 141027.3 5.4 12.0 6.216.0
2018-Feb-23 09:51N 32°16' W 117°36'512.2
2018-Feb-23 09:25N 32°20' W 117°40'512.0
2018-Feb-23 09:00N 32°24' W 117°43'194.3
2018-Feb-23 09:00N 32°24' W 117°42'713.4 330 / 151027.3 5.4 12.0 6.216.0
2018-Feb-23 08:30N 32°30' W 117°45'612.3
2018-Feb-23 08:00N 32°36' W 117°47'612.3
2018-Feb-23 07:30N 32°42' W 117°50'612.4
2018-Feb-23 07:00N 32°48' W 117°52'7539.5
2018-Feb-23 07:00N 32°42' W 117°48'1326.1 280 / 251026.310.8 12.0 6.216.0
2018-Feb-23 06:30N 32°53' W 117°55'612.5
2018-Feb-23 06:00N 32°59' W 117°57'612.5
2018-Feb-23 05:30N 33°05' W 118°00'612.5
2018-Feb-23 05:00N 33°11' W 118°03'612.2
2018-Feb-23 04:30N 33°17' W 118°05'1911.6
2018-Feb-23 02:52N 33°35' W 118°13'411.5
2018-Feb-23 02:30N 33°39' W 118°12'5 9.7
2018-Feb-23 02:00N 33°43' W 118°11'2 3.0
2018-Feb-23 01:28N 33°45' W 118°11'0 0.0
2018-Feb-23 00:58N 33°45' W 118°11'0 0.0
2018-Feb-23 00:28N 33°45' W 118°11'0 0.0
2018-Feb-22 23:58N 33°45' W 118°11'0 0.0
2018-Feb-22 23:28N 33°45' W 118°11'0 0.0
2018-Feb-22 23:00N 33°45' W 118°11'0 0.0
2018-Feb-22 22:27N 33°45' W 118°11'0 0.0
2018-Feb-22 22:00N 33°45' W 118°11'0 0.0
2018-Feb-22 21:30N 33°45' W 118°11'0 0.0
2018-Feb-22 20:59N 33°45' W 118°11'0 0.0
2018-Feb-22 20:29N 33°45' W 118°11'0 0.0
2018-Feb-22 19:59N 33°45' W 118°11'0 0.0
2018-Feb-22 19:26N 33°45' W 118°11'0 0.0
2018-Feb-22 18:56N 33°45' W 118°11'0 0.0
2018-Feb-22 18:28N 33°45' W 118°11'0 0.0
2018-Feb-22 17:58N 33°45' W 118°11'0 0.0
2018-Feb-22 16:46N 33°45' W 118°11'0 0.0
2018-Feb-22 16:28N 33°45' W 118°11'0 0.0
2018-Feb-22 16:00N 33°45' W 118°11'0 0.0
2018-Feb-22 15:27N 33°45' W 118°11'0 0.0
2018-Feb-22 15:00N 33°45' W 118°11'0 0.0
2018-Feb-22 14:27N 33°45' W 118°11'0 0.0
2018-Feb-22 14:00N 33°45' W 118°11'0 0.6
2018-Feb-22 13:30N 33°45' W 118°11'3 6.1
2018-Feb-22 13:00N 33°42' W 118°11'510.2
2018-Feb-22 12:30N 33°37' W 118°10'611.3
2018-Feb-22 12:00N 33°31' W 118°08'510.9
2018-Feb-22 11:30N 33°26' W 118°05'612.2
2018-Feb-22 11:00N 33°20' W 118°03'815.5
2018-Feb-22 10:30N 33°13' W 117°60'815.9
2018-Feb-22 10:01N 33°06' W 117°56'815.7
2018-Feb-22 09:31N 32°59' W 117°52'815.4
2018-Feb-22 09:01N 32°52' W 117°50'3165.1
2018-Feb-22 09:00N 32°54' W 117°48'1220.0 330 / 81024.3 5.4 17.013.717.0
2018-Feb-22 08:24N 32°42' W 117°49'615.3
2018-Feb-22 08:00N 32°36' W 117°47'28 1.2
2018-Feb-21 09:00N 32°12' W 117°30'1215.2 300 / 51024.3 5.4 12.0 1.316.0
2018-Feb-21 08:14N 32°20' W 117°40'2 9.4
2018-Feb-21 08:00N 32°21' W 117°41'3180.8
2018-Feb-21 08:00N 32°24' W 117°42'2 4.7 320 / 81025.310.8 11.0 2.616.2
2018-Feb-21 07:30N 32°26' W 117°43'5 9.6
2018-Feb-21 07:00N 32°31' W 117°45'510.1
2018-Feb-21 06:30N 32°35' W 117°47'510.2
2018-Feb-21 06:01N 32°40' W 117°49'510.2
2018-Feb-21 05:30N 32°45' W 117°50'510.3
2018-Feb-21 05:01N 32°50' W 117°50'5 9.9
2018-Feb-21 04:31N 32°55' W 117°51'510.6
2018-Feb-21 04:01N 32°59' W 117°55'510.5
2018-Feb-21 03:30N 33°03' W 117°59'510.3
2018-Feb-21 03:00N 33°07' W 118°03'810.2
2018-Feb-21 02:12N 33°13' W 118°10'2 9.7
2018-Feb-21 02:00N 33°15' W 118°11'4 0.3
2018-Feb-20 14:38N 33°18' W 118°13'111.7
2018-Feb-20 14:30N 33°18' W 118°11'612.6
2018-Feb-20 14:00N 33°15' W 118°04'4 7.1
2018-Feb-20 13:30N 33°12' W 118°05'5 6.9
2018-Feb-20 12:48N 33°07' W 118°06'3 7.8
2018-Feb-20 12:29N 33°05' W 118°05'4 7.6
2018-Feb-20 12:00N 33°02' W 118°03'4 7.5
2018-Feb-20 11:30N 32°58' W 118°01'4 8.1
2018-Feb-20 11:00N 32°55' W 117°59'4 7.9
2018-Feb-20 10:30N 32°51' W 117°57'4 8.3
2018-Feb-20 10:00N 32°47' W 117°55'8 9.7
2018-Feb-20 09:08N 32°40' W 117°50'1 9.5
2018-Feb-20 09:00N 32°39' W 117°50'5 9.8
2018-Feb-20 08:27N 32°33' W 117°50'9 1.1
2018-Feb-20 00:00N 32°42' W 117°48'24 2.4 310 / 161020.3 5.4 13.0 5.116.0
2018-Feb-19 14:00N 32°18' W 117°48'2 5.0 310 / 351018.210.8 12.0 8.317.0
2018-Feb-19 13:41N 32°19' W 117°49'1 7.1
2018-Feb-19 13:29N 32°21' W 117°48'4 7.3
2018-Feb-19 13:00N 32°24' W 117°48'4 7.3
2018-Feb-19 12:27N 32°28' W 117°47'3 7.4
2018-Feb-19 11:59N 32°32' W 117°46'4 7.5
2018-Feb-19 11:30N 32°35' W 117°46'4 7.2
2018-Feb-19 11:00N 32°39' W 117°46'4342.1
2018-Feb-19 11:00N 32°36' W 117°42'815.7 320 / 251016.2 5.4 12.0 8.316.0
2018-Feb-19 10:30N 32°42' W 117°47'4 7.3
2018-Feb-19 10:00N 32°46' W 117°48'4 7.3
2018-Feb-19 09:30N 32°49' W 117°49'4 7.2
2018-Feb-19 08:58N 32°53' W 117°50'3 7.2
2018-Feb-19 08:30N 32°57' W 117°50'4 7.4
2018-Feb-19 08:00N 33°00' W 117°51'2149.3
2018-Feb-19 08:00N 33°00' W 117°48'510.6 300 / 241017.210.8 13.0 7.416.8
2018-Feb-19 07:30N 33°03' W 117°53'4 7.1
2018-Feb-19 07:00N 33°06' W 117°56'3 7.0
2018-Feb-19 06:30N 33°09' W 117°58'3 7.0
2018-Feb-19 06:00N 33°11' W 118°01'4 7.3
2018-Feb-19 05:30N 33°14' W 118°03'14 8.5
2018-Feb-19 03:48N 33°28' W 118°10'3 8.5
2018-Feb-19 03:27N 33°31' W 118°11'4 8.9
2018-Feb-19 02:57N 33°35' W 118°13'4 8.5
2018-Feb-19 02:30N 33°38' W 118°12'4 8.2
2018-Feb-19 02:00N 33°43' W 118°11'3 5.0
2018-Feb-19 01:29N 33°45' W 118°11'0 0.0
2018-Feb-19 00:59N 33°45' W 118°11'0 0.0
2018-Feb-19 00:29N 33°45' W 118°11'0 0.0
2018-Feb-18 23:59N 33°45' W 118°11'0 0.0
2018-Feb-18 23:28N 33°45' W 118°11'0 0.0
2018-Feb-18 22:58N 33°45' W 118°11'0 0.0
2018-Feb-18 22:28N 33°45' W 118°11'0 0.0
2018-Feb-18 21:55N 33°45' W 118°11'0 0.0
2018-Feb-18 21:25N 33°45' W 118°11'0 0.0
2018-Feb-18 20:57N 33°45' W 118°11'0 0.0
2018-Feb-18 20:30N 33°45' W 118°11'0 0.0
2018-Feb-18 19:54N 33°45' W 118°11'0 0.0
2018-Feb-18 19:30N 33°45' W 118°11'0 0.0
2018-Feb-18 18:59N 33°45' W 118°11'0 0.0
2018-Feb-18 18:26N 33°45' W 118°11'0 0.0
2018-Feb-18 17:56N 33°45' W 118°11'0 0.0
2018-Feb-18 17:26N 33°45' W 118°11'0 0.0
2018-Feb-18 16:59N 33°45' W 118°11'0 0.0
2018-Feb-18 16:28N 33°45' W 118°11'0 0.0
2018-Feb-18 15:58N 33°45' W 118°11'0 0.0
2018-Feb-18 15:28N 33°45' W 118°11'0 0.0
2018-Feb-18 14:58N 33°45' W 118°11'0 0.0
2018-Feb-18 14:28N 33°45' W 118°11'0 0.0
2018-Feb-18 14:00N 33°45' W 118°11'0 0.6
2018-Feb-18 13:30N 33°45' W 118°11'3 6.9
2018-Feb-18 13:00N 33°41' W 118°11'4 7.9
2018-Feb-18 12:30N 33°38' W 118°10'4 7.0
2018-Feb-18 12:00N 33°34' W 118°09'4 7.1
2018-Feb-18 11:30N 33°31' W 118°08'3 6.5
2018-Feb-18 11:00N 33°28' W 118°06'3 6.5
2018-Feb-18 10:30N 33°25' W 118°05'3 6.6
2018-Feb-18 10:00N 33°22' W 118°03'5358.8
2018-Feb-18 10:00N 33°18' W 118°00'2 3.3 350 / 31020.3 5.4 15.013.317.0
2018-Feb-18 09:30N 33°18' W 118°02'3 6.7
2018-Feb-18 09:00N 33°15' W 118°00'3 6.8
2018-Feb-18 08:30N 33°12' W 117°59'3 6.8
2018-Feb-18 08:00N 33°09' W 117°57'4 7.0
2018-Feb-18 07:30N 33°06' W 117°56'3 6.9
2018-Feb-18 07:00N 33°03' W 117°54'3173.1
2018-Feb-18 07:00N 33°00' W 117°54'1 2.7 010 / 51021.310.8 15.013.316.8
2018-Feb-18 06:30N 32°59' W 117°53'3 6.9
2018-Feb-18 06:00N 32°56' W 117°51'3 6.9
2018-Feb-18 05:30N 32°53' W 117°50'3 6.9
2018-Feb-18 05:00N 32°49' W 117°49'3 6.5
2018-Feb-18 04:30N 32°46' W 117°48'3 6.6
2018-Feb-18 03:59N 32°43' W 117°48'3 6.7
2018-Feb-18 03:30N 32°40' W 117°47'4 6.8
2018-Feb-18 02:56N 32°36' W 117°47'3 6.9
2018-Feb-18 02:29N 32°33' W 117°46'3 6.8
2018-Feb-18 02:00N 32°30' W 117°46'3 6.8
2018-Feb-18 01:30N 32°26' W 117°46'4 7.0
2018-Feb-18 01:00N 32°23' W 117°45'3 6.9
2018-Feb-18 00:30N 32°19' W 117°45'3 6.9
2018-Feb-18 00:00N 32°16' W 117°44'3 6.7
2018-Feb-17 23:30N 32°12' W 117°44'3 6.6
2018-Feb-17 23:01N 32°09' W 117°43'3197.0
2018-Feb-17 23:00N 32°06' W 117°42'1 1.6 350 / 101023.3 5.4 18.011.217.0
2018-Feb-17 22:30N 32°06' W 117°43'3 6.8
2018-Feb-17 22:00N 32°02' W 117°42'4 6.8
2018-Feb-17 21:22N 31°58' W 117°42'2 6.4
2018-Feb-17 21:00N 31°56' W 117°43'3 6.7
2018-Feb-17 20:30N 31°53' W 117°43'3 6.9
2018-Feb-17 20:00N 31°49' W 117°42'3 6.0
2018-Feb-17 19:28N 31°46' W 117°44'3 6.9
2018-Feb-17 19:00N 31°45' W 117°47'4 6.9
2018-Feb-17 18:29N 31°43' W 117°51'3 6.9
2018-Feb-17 18:00N 31°42' W 117°55'3 6.6
2018-Feb-17 17:30N 31°40' W 117°58'3 6.7
2018-Feb-17 17:00N 31°42' W 118°02'3 6.8
2018-Feb-17 16:30N 31°43' W 118°05'4 6.6
2018-Feb-17 15:58N 31°45' W 118°09'3 6.5
2018-Feb-17 15:30N 31°45' W 118°13'3 6.4
2018-Feb-17 15:00N 31°41' W 118°13'4 6.5
2018-Feb-17 14:27N 31°38' W 118°12'3 7.1
2018-Feb-17 13:59N 31°35' W 118°12'1111.1
2018-Feb-17 13:00N 31°30' W 118°00'5158.0 020 / 81023.310.8 16.010.817.0
2018-Feb-17 12:58N 31°33' W 118°04'3 6.9
2018-Feb-17 12:30N 31°33' W 118°01'5 6.9
2018-Feb-17 11:50N 31°34' W 117°55'2 6.9
2018-Feb-17 11:29N 31°35' W 117°53'4 6.9
2018-Feb-17 10:52N 31°38' W 117°49'9 6.8
2018-Feb-17 09:30N 31°41' W 117°39'4 7.1
2018-Feb-17 09:00N 31°43' W 117°35'5317.5
2018-Feb-17 09:00N 31°42' W 117°30'10 5.1 360 / 151022.3 5.4 17.010.017.0
2018-Feb-17 07:00N 31°42' W 117°18'25 1.2 360 / 171023.310.8 17.010.017.0
2018-Feb-16 11:00N 32°06' W 117°24'1011.3 020 / 151023.3 5.4 16.012.717.0
2018-Feb-16 10:04N 32°13' W 117°33'115.8
2018-Feb-16 10:00N 32°14' W 117°34'815.9
2018-Feb-16 09:30N 32°20' W 117°40'816.0
2018-Feb-16 09:00N 32°27' W 117°44'816.1
2018-Feb-16 08:30N 32°35' W 117°47'816.0
2018-Feb-16 08:00N 32°42' W 117°50'816.0
2018-Feb-16 07:30N 32°50' W 117°53'816.0
2018-Feb-16 07:01N 32°57' W 117°57'4229.0
2018-Feb-16 07:00N 32°54' W 117°54'1122.4 010 / 111023.310.8 16.010.816.7
2018-Feb-16 06:30N 33°03' W 118°01'5 9.4
2018-Feb-16 06:00N 33°07' W 118°03'4 8.6
2018-Feb-16 05:30N 33°12' W 118°03'4 9.0
2018-Feb-16 05:00N 33°16' W 118°05'5 9.2
2018-Feb-16 04:30N 33°20' W 118°07'5 9.1
2018-Feb-16 04:00N 33°25' W 118°08'5 9.0
2018-Feb-16 03:30N 33°29' W 118°10'5 9.0
2018-Feb-16 03:00N 33°33' W 118°12'4 8.7
2018-Feb-16 02:30N 33°37' W 118°13'510.4
2018-Feb-16 02:00N 33°42' W 118°11'  
Track history (hours):
 
Tides and Currents Weather Stations Pressure Air Temp Water Temp Dewpoint Dewpoint Depression Visibility Wind Speed Wind Dir Waves Ship Positions

Imagination

Operator: Carnival Cruise Lines

Last reported at 2018-Feb-26 02:00 UTC. Time now 2018-Feb-26 02:12 UTC.
Position N 33°42' W 118°11'.

Type: Ship. MMSI: 309933000.

Date/timePositionNaut miles runAvg speedWind from/ knotsBaromVisibWave heightAir tempDewpointWater temp
2018-Feb-26 02:00N 33°42' W 118°11'3 5.9
2018-Feb-26 01:30N 33°45' W 118°11'0 0.0
2018-Feb-26 00:58N 33°45' W 118°11'0 0.0
2018-Feb-26 00:28N 33°45' W 118°11'0 0.0
2018-Feb-26 00:00N 33°45' W 118°11'0 0.0
2018-Feb-25 23:30N 33°45' W 118°11'0 0.0
2018-Feb-25 23:00N 33°45' W 118°11'0 0.0
2018-Feb-25 22:30N 33°45' W 118°11'0 0.0
2018-Feb-25 22:00N 33°45' W 118°11'0 0.0
2018-Feb-25 21:29N 33°45' W 118°11'0 0.0
2018-Feb-25 20:59N 33°45' W 118°11'0 0.0
2018-Feb-25 20:29N 33°45' W 118°11'0 0.0
2018-Feb-25 19:59N 33°45' W 118°11'0 0.0
2018-Feb-25 19:28N 33°45' W 118°11'0 0.0
2018-Feb-25 18:58N 33°45' W 118°11'0 0.0
2018-Feb-25 18:28N 33°45' W 118°11'0 0.0
2018-Feb-25 17:58N 33°45' W 118°11'0 0.0
2018-Feb-25 17:25N 33°45' W 118°11'0 0.0
2018-Feb-25 17:00N 33°45' W 118°11'0 0.0
2018-Feb-25 16:30N 33°45' W 118°11'0 0.0
2018-Feb-25 16:00N 33°45' W 118°11'0 0.0
2018-Feb-25 15:30N 33°45' W 118°11'0 0.0
2018-Feb-25 14:59N 33°45' W 118°11'0 0.0
2018-Feb-25 14:26N 33°45' W 118°11'0 0.0
2018-Feb-25 13:56N 33°45' W 118°11'0 0.8
2018-Feb-25 13:30N 33°45' W 118°11'3 6.5
2018-Feb-25 13:01N 33°42' W 118°11'4 8.4
2018-Feb-25 12:30N 33°37' W 118°10'4 7.4
2018-Feb-25 12:00N 33°34' W 118°09'3 5.9
2018-Feb-25 11:30N 33°31' W 118°08'3 5.6
2018-Feb-25 11:00N 33°28' W 118°06'3 6.1
2018-Feb-25 10:30N 33°26' W 118°05'3 6.6
2018-Feb-25 10:00N 33°23' W 118°04'5365.7
2018-Feb-25 10:00N 33°18' W 118°00'2 5.0 120 / 101025.3 5.4 12.0 6.215.0
2018-Feb-25 09:30N 33°19' W 118°02'3 6.5
2018-Feb-25 09:00N 33°16' W 118°01'3 6.5
2018-Feb-25 08:30N 33°13' W 117°60'3 6.7
2018-Feb-25 07:59N 33°10' W 117°58'3 6.7
2018-Feb-25 07:28N 33°07' W 117°57'3 6.7
2018-Feb-25 07:00N 33°04' W 117°55'3 6.7
2018-Feb-25 06:30N 33°01' W 117°53'3 7.0
2018-Feb-25 06:00N 32°58' W 117°52'3 6.9
2018-Feb-25 05:30N 32°55' W 117°50'3 6.6
2018-Feb-25 05:00N 32°51' W 117°50'3 6.7
2018-Feb-25 04:30N 32°48' W 117°49'3 6.5
2018-Feb-25 04:00N 32°45' W 117°48'3 6.5
2018-Feb-25 03:30N 32°42' W 117°48'3 6.4
2018-Feb-25 03:00N 32°38' W 117°47'4 6.5
2018-Feb-25 02:23N 32°34' W 117°46'2 6.5
2018-Feb-25 02:01N 32°32' W 117°46'7 6.7
2018-Feb-25 01:01N 32°25' W 117°46'0 6.6
2018-Feb-25 01:00N 32°25' W 117°46'3 6.7
2018-Feb-25 00:30N 32°22' W 117°45'28 8.0
2018-Feb-24 21:00N 31°54' W 117°42'35 5.0 330 / 81028.3 5.4 13.0 5.116.0
2018-Feb-24 14:00N 31°30' W 118°12'33 6.6 360 / 71027.310.8 12.0 3.916.0
2018-Feb-24 09:00N 31°42' W 117°36'67 3.4 350 / 151030.3 5.4 11.0 5.016.0
2018-Feb-23 13:00N 31°54' W 118°54'7022.1 310 / 141027.3 5.4 12.0 6.216.0
2018-Feb-23 09:51N 32°16' W 117°36'512.2
2018-Feb-23 09:25N 32°20' W 117°40'512.0
2018-Feb-23 09:00N 32°24' W 117°43'194.3
2018-Feb-23 09:00N 32°24' W 117°42'713.4 330 / 151027.3 5.4 12.0 6.216.0
2018-Feb-23 08:30N 32°30' W 117°45'612.3
2018-Feb-23 08:00N 32°36' W 117°47'612.3
2018-Feb-23 07:30N 32°42' W 117°50'612.4
2018-Feb-23 07:00N 32°48' W 117°52'7539.5
2018-Feb-23 07:00N 32°42' W 117°48'1326.1 280 / 251026.310.8 12.0 6.216.0
2018-Feb-23 06:30N 32°53' W 117°55'612.5
2018-Feb-23 06:00N 32°59' W 117°57'612.5
2018-Feb-23 05:30N 33°05' W 118°00'612.5
2018-Feb-23 05:00N 33°11' W 118°03'612.2
2018-Feb-23 04:30N 33°17' W 118°05'1911.6
2018-Feb-23 02:52N 33°35' W 118°13'411.5
2018-Feb-23 02:30N 33°39' W 118°12'5 9.7
2018-Feb-23 02:00N 33°43' W 118°11'2 3.0
2018-Feb-23 01:28N 33°45' W 118°11'0 0.0
2018-Feb-23 00:58N 33°45' W 118°11'0 0.0
2018-Feb-23 00:28N 33°45' W 118°11'0 0.0
2018-Feb-22 23:58N 33°45' W 118°11'0 0.0
2018-Feb-22 23:28N 33°45' W 118°11'0 0.0
2018-Feb-22 23:00N 33°45' W 118°11'0 0.0
2018-Feb-22 22:27N 33°45' W 118°11'0 0.0
2018-Feb-22 22:00N 33°45' W 118°11'0 0.0
2018-Feb-22 21:30N 33°45' W 118°11'0 0.0
2018-Feb-22 20:59N 33°45' W 118°11'0 0.0
2018-Feb-22 20:29N 33°45' W 118°11'0 0.0
2018-Feb-22 19:59N 33°45' W 118°11'0 0.0
2018-Feb-22 19:26N 33°45' W 118°11'0 0.0
2018-Feb-22 18:56N 33°45' W 118°11'0 0.0
2018-Feb-22 18:28N 33°45' W 118°11'0 0.0
2018-Feb-22 17:58N 33°45' W 118°11'0 0.0
2018-Feb-22 16:46N 33°45' W 118°11'0 0.0
2018-Feb-22 16:28N 33°45' W 118°11'0 0.0
2018-Feb-22 16:00N 33°45' W 118°11'0 0.0
2018-Feb-22 15:27N 33°45' W 118°11'0 0.0
2018-Feb-22 15:00N 33°45' W 118°11'0 0.0
2018-Feb-22 14:27N 33°45' W 118°11'0 0.0
2018-Feb-22 14:00N 33°45' W 118°11'0 0.6
2018-Feb-22 13:30N 33°45' W 118°11'3 6.1
2018-Feb-22 13:00N 33°42' W 118°11'510.2
2018-Feb-22 12:30N 33°37' W 118°10'611.3
2018-Feb-22 12:00N 33°31' W 118°08'510.9
2018-Feb-22 11:30N 33°26' W 118°05'612.2
2018-Feb-22 11:00N 33°20' W 118°03'815.5
2018-Feb-22 10:30N 33°13' W 117°60'815.9
2018-Feb-22 10:01N 33°06' W 117°56'815.7
2018-Feb-22 09:31N 32°59' W 117°52'815.4
2018-Feb-22 09:01N 32°52' W 117°50'3165.1
2018-Feb-22 09:00N 32°54' W 117°48'1220.0 330 / 81024.3 5.4 17.013.717.0
2018-Feb-22 08:24N 32°42' W 117°49'615.3
2018-Feb-22 08:00N 32°36' W 117°47'28 1.2
2018-Feb-21 09:00N 32°12' W 117°30'1215.2 300 / 51024.3 5.4 12.0 1.316.0
2018-Feb-21 08:14N 32°20' W 117°40'2 9.4
2018-Feb-21 08:00N 32°21' W 117°41'3180.8
2018-Feb-21 08:00N 32°24' W 117°42'2 4.7 320 / 81025.310.8 11.0 2.616.2
2018-Feb-21 07:30N 32°26' W 117°43'5 9.6
2018-Feb-21 07:00N 32°31' W 117°45'510.1
2018-Feb-21 06:30N 32°35' W 117°47'510.2
2018-Feb-21 06:01N 32°40' W 117°49'510.2
2018-Feb-21 05:30N 32°45' W 117°50'510.3
2018-Feb-21 05:01N 32°50' W 117°50'5 9.9
2018-Feb-21 04:31N 32°55' W 117°51'510.6
2018-Feb-21 04:01N 32°59' W 117°55'510.5
2018-Feb-21 03:30N 33°03' W 117°59'510.3
2018-Feb-21 03:00N 33°07' W 118°03'810.2
2018-Feb-21 02:12N 33°13' W 118°10'2 9.7
2018-Feb-21 02:00N 33°15' W 118°11'4 0.3
2018-Feb-20 14:38N 33°18' W 118°13'111.7
2018-Feb-20 14:30N 33°18' W 118°11'612.6
2018-Feb-20 14:00N 33°15' W 118°04'4 7.1
2018-Feb-20 13:30N 33°12' W 118°05'5 6.9
2018-Feb-20 12:48N 33°07' W 118°06'3 7.8
2018-Feb-20 12:29N 33°05' W 118°05'4 7.6
2018-Feb-20 12:00N 33°02' W 118°03'4 7.5
2018-Feb-20 11:30N 32°58' W 118°01'4 8.1
2018-Feb-20 11:00N 32°55' W 117°59'4 7.9
2018-Feb-20 10:30N 32°51' W 117°57'4 8.3
2018-Feb-20 10:00N 32°47' W 117°55'8 9.7
2018-Feb-20 09:08N 32°40' W 117°50'1 9.5
2018-Feb-20 09:00N 32°39' W 117°50'5 9.8
2018-Feb-20 08:27N 32°33' W 117°50'9 1.1
2018-Feb-20 00:00N 32°42' W 117°48'24 2.4 310 / 161020.3 5.4 13.0 5.116.0
2018-Feb-19 14:00N 32°18' W 117°48'2 5.0 310 / 351018.210.8 12.0 8.317.0
2018-Feb-19 13:41N 32°19' W 117°49'1 7.1
2018-Feb-19 13:29N 32°21' W 117°48'4 7.3
2018-Feb-19 13:00N 32°24' W 117°48'4 7.3
2018-Feb-19 12:27N 32°28' W 117°47'3 7.4
2018-Feb-19 11:59N 32°32' W 117°46'4 7.5
2018-Feb-19 11:30N 32°35' W 117°46'4 7.2
2018-Feb-19 11:00N 32°39' W 117°46'4342.1
2018-Feb-19 11:00N 32°36' W 117°42'815.7 320 / 251016.2 5.4 12.0 8.316.0
2018-Feb-19 10:30N 32°42' W 117°47'4 7.3
2018-Feb-19 10:00N 32°46' W 117°48'4 7.3
2018-Feb-19 09:30N 32°49' W 117°49'4 7.2
2018-Feb-19 08:58N 32°53' W 117°50'3 7.2
2018-Feb-19 08:30N 32°57' W 117°50'4 7.4
2018-Feb-19 08:00N 33°00' W 117°51'2149.3
2018-Feb-19 08:00N 33°00' W 117°48'510.6 300 / 241017.210.8 13.0 7.416.8
2018-Feb-19 07:30N 33°03' W 117°53'4 7.1
2018-Feb-19 07:00N 33°06' W 117°56'3 7.0
2018-Feb-19 06:30N 33°09' W 117°58'3 7.0
2018-Feb-19 06:00N 33°11' W 118°01'4 7.3
2018-Feb-19 05:30N 33°14' W 118°03'14 8.5
2018-Feb-19 03:48N 33°28' W 118°10'3 8.5
2018-Feb-19 03:27N 33°31' W 118°11'4 8.9
2018-Feb-19 02:57N 33°35' W 118°13'4 8.5
2018-Feb-19 02:30N 33°38' W 118°12'4 8.2
2018-Feb-19 02:00N 33°43' W 118°11'3 5.0
2018-Feb-19 01:29N 33°45' W 118°11'0 0.0
2018-Feb-19 00:59N 33°45' W 118°11'0 0.0
2018-Feb-19 00:29N 33°45' W 118°11'0 0.0
2018-Feb-18 23:59N 33°45' W 118°11'0 0.0
2018-Feb-18 23:28N 33°45' W 118°11'0 0.0
2018-Feb-18 22:58N 33°45' W 118°11'0 0.0
2018-Feb-18 22:28N 33°45' W 118°11'0 0.0
2018-Feb-18 21:55N 33°45' W 118°11'0 0.0
2018-Feb-18 21:25N 33°45' W 118°11'0 0.0
2018-Feb-18 20:57N 33°45' W 118°11'0 0.0
2018-Feb-18 20:30N 33°45' W 118°11'0 0.0
2018-Feb-18 19:54N 33°45' W 118°11'0 0.0
2018-Feb-18 19:30N 33°45' W 118°11'0 0.0
2018-Feb-18 18:59N 33°45' W 118°11'0 0.0
2018-Feb-18 18:26N 33°45' W 118°11'0 0.0
2018-Feb-18 17:56N 33°45' W 118°11'0 0.0
2018-Feb-18 17:26N 33°45' W 118°11'0 0.0
2018-Feb-18 16:59N 33°45' W 118°11'0 0.0
2018-Feb-18 16:28N 33°45' W 118°11'0 0.0
2018-Feb-18 15:58N 33°45' W 118°11'0 0.0
2018-Feb-18 15:28N 33°45' W 118°11'0 0.0
2018-Feb-18 14:58N 33°45' W 118°11'0 0.0
2018-Feb-18 14:28N 33°45' W 118°11'0 0.0
2018-Feb-18 14:00N 33°45' W 118°11'0 0.6
2018-Feb-18 13:30N 33°45' W 118°11'3 6.9
2018-Feb-18 13:00N 33°41' W 118°11'4 7.9
2018-Feb-18 12:30N 33°38' W 118°10'4 7.0
2018-Feb-18 12:00N 33°34' W 118°09'4 7.1
2018-Feb-18 11:30N 33°31' W 118°08'3 6.5
2018-Feb-18 11:00N 33°28' W 118°06'3 6.5
2018-Feb-18 10:30N 33°25' W 118°05'3 6.6
2018-Feb-18 10:00N 33°22' W 118°03'5358.8
2018-Feb-18 10:00N 33°18' W 118°00'2 3.3 350 / 31020.3 5.4 15.013.317.0
2018-Feb-18 09:30N 33°18' W 118°02'3 6.7
2018-Feb-18 09:00N 33°15' W 118°00'3 6.8
2018-Feb-18 08:30N 33°12' W 117°59'3 6.8
2018-Feb-18 08:00N 33°09' W 117°57'4 7.0
2018-Feb-18 07:30N 33°06' W 117°56'3 6.9
2018-Feb-18 07:00N 33°03' W 117°54'3173.1
2018-Feb-18 07:00N 33°00' W 117°54'1 2.7 010 / 51021.310.8 15.013.316.8
2018-Feb-18 06:30N 32°59' W 117°53'3 6.9
2018-Feb-18 06:00N 32°56' W 117°51'3 6.9
2018-Feb-18 05:30N 32°53' W 117°50'3 6.9
2018-Feb-18 05:00N 32°49' W 117°49'3 6.5
2018-Feb-18 04:30N 32°46' W 117°48'3 6.6
2018-Feb-18 03:59N 32°43' W 117°48'3 6.7
2018-Feb-18 03:30N 32°40' W 117°47'4 6.8
2018-Feb-18 02:56N 32°36' W 117°47'3 6.9
2018-Feb-18 02:29N 32°33' W 117°46'3 6.8
2018-Feb-18 02:00N 32°30' W 117°46'3 6.8
2018-Feb-18 01:30N 32°26' W 117°46'4 7.0
2018-Feb-18 01:00N 32°23' W 117°45'3 6.9
2018-Feb-18 00:30N 32°19' W 117°45'3 6.9
2018-Feb-18 00:00N 32°16' W 117°44'3 6.7
2018-Feb-17 23:30N 32°12' W 117°44'3 6.6
2018-Feb-17 23:01N 32°09' W 117°43'3197.0
2018-Feb-17 23:00N 32°06' W 117°42'1 1.6 350 / 101023.3 5.4 18.011.217.0
2018-Feb-17 22:30N 32°06' W 117°43'3 6.8
2018-Feb-17 22:00N 32°02' W 117°42'4 6.8
2018-Feb-17 21:22N 31°58' W 117°42'2 6.4
2018-Feb-17 21:00N 31°56' W 117°43'3 6.7
2018-Feb-17 20:30N 31°53' W 117°43'3 6.9
2018-Feb-17 20:00N 31°49' W 117°42'3 6.0
2018-Feb-17 19:28N 31°46' W 117°44'3 6.9
2018-Feb-17 19:00N 31°45' W 117°47'4 6.9
2018-Feb-17 18:29N 31°43' W 117°51'3 6.9
2018-Feb-17 18:00N 31°42' W 117°55'3 6.6
2018-Feb-17 17:30N 31°40' W 117°58'3 6.7
2018-Feb-17 17:00N 31°42' W 118°02'3 6.8
2018-Feb-17 16:30N 31°43' W 118°05'4 6.6
2018-Feb-17 15:58N 31°45' W 118°09'3 6.5
2018-Feb-17 15:30N 31°45' W 118°13'3 6.4
2018-Feb-17 15:00N 31°41' W 118°13'4 6.5
2018-Feb-17 14:27N 31°38' W 118°12'3 7.1
2018-Feb-17 13:59N 31°35' W 118°12'1111.1
2018-Feb-17 13:00N 31°30' W 118°00'5158.0 020 / 81023.310.8 16.010.817.0
2018-Feb-17 12:58N 31°33' W 118°04'3 6.9
2018-Feb-17 12:30N 31°33' W 118°01'5 6.9
2018-Feb-17 11:50N 31°34' W 117°55'2 6.9
2018-Feb-17 11:29N 31°35' W 117°53'4 6.9
2018-Feb-17 10:52N 31°38' W 117°49'9 6.8
2018-Feb-17 09:30N 31°41' W 117°39'4 7.1
2018-Feb-17 09:00N 31°43' W 117°35'5317.5
2018-Feb-17 09:00N 31°42' W 117°30'10 5.1 360 / 151022.3 5.4 17.010.017.0
2018-Feb-17 07:00N 31°42' W 117°18'25 1.2 360 / 171023.310.8 17.010.017.0
2018-Feb-16 11:00N 32°06' W 117°24'1011.3 020 / 151023.3 5.4 16.012.717.0
2018-Feb-16 10:04N 32°13' W 117°33'115.8
2018-Feb-16 10:00N 32°14' W 117°34'815.9
2018-Feb-16 09:30N 32°20' W 117°40'816.0
2018-Feb-16 09:00N 32°27' W 117°44'816.1
2018-Feb-16 08:30N 32°35' W 117°47'816.0
2018-Feb-16 08:00N 32°42' W 117°50'816.0
2018-Feb-16 07:30N 32°50' W 117°53'816.0
2018-Feb-16 07:01N 32°57' W 117°57'4229.0
2018-Feb-16 07:00N 32°54' W 117°54'1122.4 010 / 111023.310.8 16.010.816.7
2018-Feb-16 06:30N 33°03' W 118°01'5 9.4
2018-Feb-16 06:00N 33°07' W 118°03'4 8.6
2018-Feb-16 05:30N 33°12' W 118°03'4 9.0
2018-Feb-16 05:00N 33°16' W 118°05'5 9.2
2018-Feb-16 04:30N 33°20' W 118°07'5 9.1
2018-Feb-16 04:00N 33°25' W 118°08'5 9.0
2018-Feb-16 03:30N 33°29' W 118°10'5 9.0
2018-Feb-16 03:00N 33°33' W 118°12'4 8.7
2018-Feb-16 02:30N 33°37' W 118°13'510.4
2018-Feb-16 02:00N 33°42' W 118°11'  

Dump ship's entire track history